createdAt,value
2022-08-28T00:01:33.942Z,8.40
2022-08-28T00:04:01.068Z,13.40
2022-08-28T00:06:27.974Z,12.93
2022-08-28T00:08:54.557Z,13.70
2022-08-28T00:11:21.194Z,12.50
2022-08-28T00:13:48.210Z,15.48
2022-08-28T00:16:15.141Z,15.95
2022-08-28T00:18:41.598Z,12.02
2022-08-28T00:21:08.029Z,9.15
2022-08-28T00:23:42.890Z,12.90
2022-08-28T00:26:11.166Z,11.73
2022-08-28T00:28:37.645Z,16.92
2022-08-28T00:31:05.250Z,11.45
2022-08-28T00:33:34.128Z,13.25
2022-08-28T00:36:01.472Z,8.77
2022-08-28T00:38:28.694Z,12.13
2022-08-28T00:40:59.341Z,11.23
2022-08-28T00:43:41.631Z,10.85
2022-08-28T00:46:11.992Z,13.48
2022-08-28T00:48:39.341Z,13.82
2022-08-28T00:51:25.457Z,10.88
2022-08-28T00:53:55.576Z,12.88
2022-08-28T00:58:52.031Z,8.25
2022-08-28T01:01:18.853Z,9.70
2022-08-28T01:03:45.586Z,12.05
2022-08-28T01:06:15.118Z,11.35
2022-08-28T01:08:43.548Z,11.73
2022-08-28T01:11:10.851Z,11.98
2022-08-28T01:13:39.338Z,12.15
2022-08-28T01:16:06.333Z,12.73
2022-08-28T01:18:33.151Z,12.65
2022-08-28T01:21:25.156Z,10.38
2022-08-28T01:23:55.455Z,17.27
2022-08-28T01:26:22.555Z,13.82
2022-08-28T01:28:49.021Z,13.73
2022-08-28T01:31:16.246Z,13.57
2022-08-28T01:33:43.822Z,14.82
2022-08-28T01:36:12.159Z,15.13
2022-08-28T01:38:39.849Z,12.52
2022-08-28T01:41:06.364Z,16.05
2022-08-28T01:43:32.820Z,12.18
2022-08-28T01:46:02.601Z,12.40
2022-08-28T01:48:32.846Z,13.70
2022-08-28T01:50:59.493Z,11.65
2022-08-28T01:53:32.621Z,14.23
2022-08-28T01:56:01.116Z,11.07
2022-08-28T01:58:28.315Z,11.77
2022-08-28T02:00:57.451Z,12.32
2022-08-28T02:03:24.088Z,10.98
2022-08-28T02:05:50.842Z,11.98
2022-08-28T02:08:18.276Z,15.00
2022-08-28T02:10:45.011Z,10.40
2022-08-28T02:13:12.530Z,11.50
2022-08-28T02:15:40.560Z,12.10
2022-08-28T02:18:07.140Z,9.63
2022-08-28T02:20:34.027Z,14.18
2022-08-28T02:23:00.501Z,12.13
2022-08-28T02:25:27.694Z,14.23
2022-08-28T02:27:54.983Z,12.02
2022-08-28T02:30:21.460Z,13.88
2022-08-28T02:32:47.925Z,12.77
2022-08-28T02:35:16.543Z,13.15
2022-08-28T02:37:44.364Z,14.40
2022-08-28T02:40:16.928Z,15.85
2022-08-28T02:42:43.798Z,9.38
2022-08-28T02:45:11.775Z,12.20
2022-08-28T02:47:39.928Z,14.77
2022-08-28T02:50:07.378Z,10.77
2022-08-28T02:52:35.251Z,10.82
2022-08-28T02:55:02.007Z,14.82
2022-08-28T02:57:29.901Z,11.45
2022-08-28T02:59:56.539Z,10.55
2022-08-28T03:02:24.486Z,11.90
2022-08-28T03:04:51.629Z,12.98
2022-08-28T03:07:19.769Z,11.90
2022-08-28T03:09:46.280Z,12.57
2022-08-28T03:12:16.949Z,11.70
2022-08-28T03:14:43.672Z,10.43
2022-08-28T03:17:10.138Z,12.00
2022-08-28T03:19:36.568Z,11.10
2022-08-28T03:22:03.141Z,15.50
2022-08-28T03:24:29.680Z,10.20
2022-08-28T03:26:56.158Z,14.70
2022-08-28T03:29:22.958Z,18.85
2022-08-28T03:31:49.393Z,8.63
2022-08-28T03:34:15.826Z,11.38
2022-08-28T03:36:42.274Z,11.25
2022-08-28T03:39:08.676Z,11.63
2022-08-28T03:41:35.253Z,16.27
2022-08-28T03:44:01.898Z,12.63
2022-08-28T03:46:32.901Z,15.15
2022-08-28T03:49:01.232Z,15.57
2022-08-28T03:51:30.037Z,9.60
2022-08-28T03:53:58.354Z,15.13
2022-08-28T03:56:26.674Z,18.67
2022-08-28T03:58:57.314Z,12.32
2022-08-28T04:01:24.274Z,13.73
2022-08-28T04:03:50.738Z,13.88
2022-08-28T04:06:17.383Z,12.35
2022-08-28T04:08:43.904Z,12.85
2022-08-28T04:11:10.731Z,13.15
2022-08-28T04:13:37.172Z,12.48
2022-08-28T04:16:10.568Z,19.08
2022-08-28T04:18:39.465Z,12.30
2022-08-28T04:21:11.261Z,10.13
2022-08-28T04:23:38.795Z,12.77
2022-08-28T04:26:07.067Z,10.98
2022-08-28T04:28:34.197Z,12.48
2022-08-28T04:31:01.111Z,11.75
2022-08-28T04:33:28.451Z,18.95
2022-08-28T04:35:56.030Z,10.50
2022-08-28T04:38:22.499Z,15.38
2022-08-28T04:40:48.999Z,13.07
2022-08-28T04:43:15.453Z,16.27
2022-08-28T04:45:43.622Z,10.38
2022-08-28T04:48:13.578Z,11.07
2022-08-28T04:50:41.646Z,12.90
2022-08-28T04:53:08.254Z,13.27
2022-08-28T04:55:53.684Z,13.35
2022-08-28T04:58:23.750Z,12.15
2022-08-28T05:00:51.849Z,13.20
2022-08-28T05:03:18.400Z,15.48
2022-08-28T05:05:49.834Z,11.82
2022-08-28T05:08:18.478Z,14.60
2022-08-28T05:10:46.349Z,15.05
2022-08-28T05:13:13.439Z,12.38
2022-08-28T05:15:41.165Z,12.13
2022-08-28T05:18:07.765Z,12.07
2022-08-28T05:20:38.724Z,17.52
2022-08-28T05:23:06.310Z,10.70
2022-08-28T05:25:41.902Z,11.50
2022-08-28T05:28:12.292Z,13.50
2022-08-28T05:30:40.333Z,11.02
2022-08-28T05:33:08.224Z,9.55
2022-08-28T05:35:40.198Z,9.43
2022-08-28T05:38:07.022Z,15.88
2022-08-28T05:40:34.258Z,14.68
2022-08-28T05:43:00.762Z,12.85
2022-08-28T05:45:27.268Z,11.25
2022-08-28T05:47:53.974Z,15.15
2022-08-28T05:50:20.414Z,14.18
2022-08-28T05:52:47.431Z,14.30
2022-08-28T05:55:13.952Z,15.93
2022-08-28T05:57:40.887Z,15.30
2022-08-28T06:00:10.219Z,10.75
2022-08-28T06:02:36.678Z,11.30
2022-08-28T06:05:03.383Z,13.20
2022-08-28T06:07:29.881Z,12.55
2022-08-28T06:09:57.056Z,15.38
2022-08-28T06:12:23.578Z,15.70
2022-08-28T06:14:50.077Z,9.00
2022-08-28T06:17:16.569Z,13.57
2022-08-28T06:19:49.990Z,11.57
2022-08-28T06:22:16.484Z,11.63
2022-08-28T06:24:42.945Z,13.30
2022-08-28T06:27:09.377Z,12.50
2022-08-28T06:29:35.836Z,13.52
2022-08-28T06:32:04.781Z,7.03
2022-08-28T06:34:31.350Z,12.20
2022-08-28T06:36:57.961Z,10.98
2022-08-28T06:39:24.392Z,12.43
2022-08-28T06:41:51.292Z,12.27
2022-08-28T06:44:20.110Z,15.07
2022-08-28T06:46:47.992Z,11.93
2022-08-28T06:49:15.087Z,12.05
2022-08-28T06:51:41.789Z,10.57
2022-08-28T06:54:09.284Z,13.07
2022-08-28T06:56:35.929Z,12.02
2022-08-28T06:59:02.460Z,9.75
2022-08-28T07:01:32.892Z,10.23
2022-08-28T07:04:01.893Z,9.45
2022-08-28T07:06:31.668Z,12.38
2022-08-28T07:08:58.137Z,11.35
2022-08-28T07:11:29.880Z,16.13
2022-08-28T07:13:57.224Z,11.67
2022-08-28T07:16:26.319Z,13.82
2022-08-28T07:18:52.966Z,11.05
2022-08-28T07:21:20.430Z,10.38
2022-08-28T07:23:47.038Z,10.13
2022-08-28T07:26:19.924Z,7.40
2022-08-28T07:28:46.650Z,10.35
2022-08-28T07:31:16.154Z,15.00
2022-08-28T07:33:43.540Z,11.50
2022-08-28T07:36:15.846Z,10.95
2022-08-28T07:38:56.386Z,9.25
2022-08-28T07:41:25.777Z,8.50
2022-08-28T07:44:11.951Z,10.95
2022-08-28T07:46:39.272Z,7.32
2022-08-28T07:49:06.931Z,9.25
2022-08-28T07:51:33.460Z,10.00
2022-08-28T07:54:02.180Z,6.88
2022-08-28T07:56:29.960Z,12.00
2022-08-28T07:58:57.772Z,9.90
2022-08-28T08:01:25.148Z,10.05
2022-08-28T08:03:51.666Z,6.78
2022-08-28T08:08:54.716Z,11.43
2022-08-28T08:11:21.176Z,8.05
2022-08-28T08:13:51.053Z,8.40
2022-08-28T08:16:20.224Z,9.40
2022-08-28T08:18:48.640Z,7.95
2022-08-28T08:21:18.259Z,9.10
2022-08-28T08:23:45.062Z,7.45
2022-08-28T08:26:14.114Z,8.23
2022-08-28T08:28:41.371Z,7.28
2022-08-28T08:31:07.830Z,10.95
2022-08-28T08:33:35.204Z,7.95
2022-08-28T08:36:01.714Z,8.70
2022-08-28T08:38:32.127Z,7.47
2022-08-28T08:41:06.391Z,8.65
2022-08-28T08:43:53.040Z,8.05
2022-08-28T08:46:31.808Z,8.95
2022-08-28T08:49:02.885Z,8.93
2022-08-28T08:51:42.214Z,8.13
2022-08-28T08:54:12.247Z,10.50
2022-08-28T08:56:39.635Z,7.78
2022-08-28T08:59:10.779Z,5.95
2022-08-28T09:01:44.581Z,7.32
2022-08-28T09:04:21.685Z,7.90
2022-08-28T09:06:58.376Z,13.07
2022-08-28T09:09:35.471Z,8.02
2022-08-28T09:12:05.502Z,8.98
2022-08-28T09:15:05.442Z,9.88
2022-08-28T09:17:35.578Z,6.63
2022-08-28T09:20:10.361Z,5.63
2022-08-28T09:22:37.931Z,8.27
2022-08-28T09:25:06.179Z,11.80
2022-08-28T09:27:39.291Z,6.47
2022-08-28T09:30:08.650Z,8.38
2022-08-28T09:32:41.498Z,6.80
2022-08-28T09:35:28.219Z,10.88
2022-08-28T09:37:55.560Z,6.25
2022-08-28T09:40:26.767Z,5.68
2022-08-28T09:43:26.633Z,10.02
2022-08-28T09:46:11.862Z,9.77
2022-08-28T09:48:43.522Z,7.28
2022-08-28T09:51:27.969Z,7.38
2022-08-28T09:53:57.364Z,6.03
2022-08-28T09:56:33.365Z,7.85
2022-08-28T09:59:01.403Z,8.60
2022-08-28T10:01:46.275Z,7.82
2022-08-28T10:04:15.898Z,6.97
2022-08-28T10:07:03.563Z,7.32
2022-08-28T10:09:47.707Z,8.18
2022-08-28T10:12:45.431Z,10.35
2022-08-28T10:15:26.356Z,13.13
2022-08-28T10:18:14.743Z,8.23
2022-08-28T10:20:44.039Z,7.20
2022-08-28T10:23:24.701Z,5.80
2022-08-28T10:26:03.368Z,4.63
2022-08-28T10:28:41.193Z,6.65
2022-08-28T10:31:20.641Z,5.22
2022-08-28T10:33:57.682Z,8.25
2022-08-28T10:36:34.637Z,5.05
2022-08-28T10:39:21.213Z,6.30
2022-08-28T10:41:58.816Z,8.77
2022-08-28T10:44:49.275Z,4.88
2022-08-28T10:47:16.109Z,8.13
2022-08-28T10:49:45.525Z,6.45
2022-08-28T10:52:25.913Z,5.80
2022-08-28T10:55:04.905Z,6.68
2022-08-28T10:57:59.277Z,6.68
2022-08-28T11:00:27.853Z,9.43
2022-08-28T11:03:00.945Z,6.88
2022-08-28T11:05:32.618Z,8.02
2022-08-28T11:08:05.303Z,6.22
2022-08-28T11:10:38.643Z,7.95
2022-08-28T11:13:06.868Z,6.07
2022-08-28T11:15:37.016Z,6.78
2022-08-28T11:18:15.868Z,7.68
2022-08-28T11:20:54.003Z,5.65
2022-08-28T11:23:24.479Z,9.43
2022-08-28T11:25:58.977Z,5.32
2022-08-28T11:28:25.588Z,6.95
2022-08-28T11:30:57.974Z,8.52
2022-08-28T11:33:52.349Z,5.43
2022-08-28T11:36:21.563Z,6.70
2022-08-28T11:38:50.828Z,6.40
2022-08-28T11:41:24.345Z,8.95
2022-08-28T11:44:13.778Z,6.63
2022-08-28T11:46:45.425Z,4.18
2022-08-28T11:49:34.565Z,9.02
2022-08-28T11:52:14.926Z,5.63
2022-08-28T11:54:50.468Z,6.00
2022-08-28T12:00:46.302Z,6.13
2022-08-28T12:03:15.735Z,5.78
2022-08-28T12:05:47.900Z,4.45
2022-08-28T12:08:47.555Z,4.47
2022-08-28T12:11:41.990Z,6.63
2022-08-28T12:14:27.089Z,5.65
2022-08-28T12:16:59.556Z,7.00
2022-08-28T12:19:55.239Z,6.25
2022-08-28T12:22:42.238Z,9.40
2022-08-28T12:25:19.770Z,5.90
2022-08-28T12:27:46.544Z,6.13
2022-08-28T12:30:30.167Z,5.45
2022-08-28T12:33:06.255Z,5.88
2022-08-28T12:35:32.689Z,4.93
2022-08-28T12:38:02.499Z,5.22
2022-08-28T12:40:37.581Z,7.13
2022-08-28T12:43:07.477Z,6.68
2022-08-28T12:45:38.469Z,4.60
2022-08-28T12:48:26.202Z,6.68
2022-08-28T12:51:08.427Z,5.90
2022-08-28T12:53:41.988Z,5.20
2022-08-28T12:56:14.085Z,6.40
2022-08-28T12:58:41.703Z,3.70
2022-08-28T13:01:33.401Z,4.80
2022-08-28T13:04:03.514Z,5.83
2022-08-28T13:06:36.560Z,5.05
2022-08-28T13:09:14.785Z,5.95
2022-08-28T13:11:49.094Z,6.18
2022-08-28T13:14:35.325Z,7.50
2022-08-28T13:17:01.793Z,5.22
2022-08-28T13:19:30.930Z,4.13
2022-08-28T13:22:29.405Z,4.20
2022-08-28T13:25:00.540Z,3.28
2022-08-28T13:27:27.369Z,3.70
2022-08-28T13:30:00.095Z,5.63
2022-08-28T13:32:29.383Z,4.30
2022-08-28T13:35:31.378Z,3.63
2022-08-28T13:38:00.225Z,4.50
2022-08-28T13:43:19.619Z,6.22
2022-08-28T13:45:48.587Z,6.93
2022-08-28T13:48:17.869Z,6.82
2022-08-28T13:50:47.349Z,4.35
2022-08-28T13:53:15.964Z,5.95
2022-08-28T13:55:42.459Z,7.35
2022-08-28T13:58:08.869Z,5.15
2022-08-28T14:00:38.518Z,3.80
2022-08-28T14:03:23.874Z,3.53
2022-08-28T14:05:50.348Z,3.70
2022-08-28T14:08:16.823Z,6.07
2022-08-28T14:10:43.217Z,4.38
2022-08-28T14:13:09.726Z,3.88
2022-08-28T14:15:36.230Z,3.83
2022-08-28T14:18:02.732Z,5.78
2022-08-28T14:20:29.241Z,4.45
2022-08-28T14:22:55.662Z,5.53
2022-08-28T14:25:22.089Z,4.72
2022-08-28T14:27:48.737Z,4.30
2022-08-28T14:30:15.507Z,5.25
2022-08-28T14:32:42.097Z,5.18
2022-08-28T14:35:09.189Z,4.70
2022-08-28T14:37:35.741Z,3.30
2022-08-28T14:40:02.291Z,6.65
2022-08-28T14:42:28.858Z,4.43
2022-08-28T14:44:55.275Z,4.88
2022-08-28T14:47:21.758Z,5.90
2022-08-28T14:49:48.533Z,6.20
2022-08-28T14:52:15.054Z,3.08
2022-08-28T14:54:41.482Z,5.28
2022-08-28T14:57:07.895Z,3.58
2022-08-28T14:59:34.460Z,6.93
2022-08-28T15:02:01.706Z,3.55
2022-08-28T15:04:37.506Z,3.15
2022-08-28T15:07:07.790Z,3.65
2022-08-28T15:09:35.943Z,4.57
2022-08-28T15:12:02.585Z,4.68
2022-08-28T15:14:28.994Z,5.72
2022-08-28T15:16:55.472Z,6.40
2022-08-28T15:19:23.420Z,4.57
2022-08-28T15:21:54.610Z,4.35
2022-08-28T15:24:23.719Z,4.55
2022-08-28T15:26:50.692Z,4.30
2022-08-28T15:29:17.323Z,6.40
2022-08-28T15:31:47.148Z,4.95
2022-08-28T15:34:16.330Z,4.97
2022-08-28T15:36:43.685Z,5.07
2022-08-28T15:39:29.878Z,5.18
2022-08-28T15:41:57.068Z,4.10
2022-08-28T15:44:24.108Z,3.88
2022-08-28T15:46:54.042Z,4.05
2022-08-28T15:49:21.024Z,3.13
2022-08-28T15:51:50.597Z,3.72
2022-08-28T15:54:17.312Z,5.68
2022-08-28T15:56:43.737Z,6.45
2022-08-28T15:59:11.112Z,6.57
2022-08-28T16:01:38.383Z,5.82
2022-08-28T16:04:06.514Z,3.08
2022-08-28T16:06:34.231Z,3.75
2022-08-28T16:09:00.655Z,3.38
2022-08-28T16:11:27.899Z,5.20
2022-08-28T16:13:58.919Z,4.90
2022-08-28T16:16:25.452Z,5.85
2022-08-28T16:18:54.353Z,6.50
2022-08-28T16:21:20.804Z,4.38
2022-08-28T16:23:48.282Z,4.40
2022-08-28T16:26:15.804Z,4.57
2022-08-28T16:28:44.591Z,6.50
2022-08-28T16:31:19.816Z,5.20
2022-08-28T16:33:48.173Z,6.78
2022-08-28T16:36:15.624Z,2.90
2022-08-28T16:38:43.657Z,4.85
2022-08-28T16:41:19.038Z,3.42
2022-08-28T16:43:46.237Z,3.60
2022-08-28T16:46:16.666Z,5.40
2022-08-28T16:48:44.178Z,5.38
2022-08-28T16:51:11.342Z,5.10
2022-08-28T16:53:40.533Z,3.58
2022-08-28T16:56:08.883Z,5.03
2022-08-28T16:58:36.721Z,4.45
2022-08-28T17:01:04.621Z,8.20
2022-08-28T17:03:32.953Z,5.88
2022-08-28T17:06:03.558Z,6.80
2022-08-28T17:08:30.004Z,7.32
2022-08-28T17:10:56.665Z,4.57
2022-08-28T17:13:25.831Z,4.45
2022-08-28T17:15:52.534Z,6.22
2022-08-28T17:18:19.184Z,5.82
2022-08-28T17:21:04.333Z,4.93
2022-08-28T17:23:30.742Z,5.18
2022-08-28T17:26:00.195Z,4.43
2022-08-28T17:28:26.628Z,4.28
2022-08-28T17:30:53.117Z,4.38
2022-08-28T17:33:19.578Z,7.90
2022-08-28T17:35:52.025Z,4.57
2022-08-28T17:38:18.612Z,4.03
2022-08-28T17:40:45.001Z,5.50
2022-08-28T17:43:11.822Z,5.05
2022-08-28T17:45:38.208Z,6.95
2022-08-28T17:48:05.137Z,6.47
2022-08-28T17:50:31.578Z,6.03
2022-08-28T17:52:57.979Z,5.53
2022-08-28T17:55:24.425Z,4.57
2022-08-28T17:57:50.939Z,6.13
2022-08-28T18:00:18.214Z,8.10
2022-08-28T18:02:45.133Z,4.38
2022-08-28T18:05:14.338Z,6.22
2022-08-28T18:07:40.974Z,4.90
2022-08-28T18:10:09.466Z,6.88
2022-08-28T18:12:35.933Z,4.80
2022-08-28T18:15:03.959Z,6.63
2022-08-28T18:17:30.457Z,5.95
2022-08-28T18:19:57.391Z,5.13
2022-08-28T18:22:28.982Z,5.65
2022-08-28T18:24:56.162Z,7.43
2022-08-28T18:27:23.233Z,5.57
2022-08-28T18:29:49.716Z,7.00
2022-08-28T18:32:16.221Z,5.97
2022-08-28T18:34:42.645Z,9.20
2022-08-28T18:37:09.529Z,7.57
2022-08-28T18:39:36.029Z,9.93
2022-08-28T18:42:02.475Z,9.77
2022-08-28T18:44:29.626Z,8.05
2022-08-28T18:46:56.112Z,7.72
2022-08-28T18:49:22.766Z,8.65
2022-08-28T18:51:49.245Z,7.95
2022-08-28T18:54:18.338Z,9.52
2022-08-28T18:56:46.042Z,9.98
2022-08-28T18:59:15.141Z,8.52
2022-08-28T19:01:41.765Z,9.23
2022-08-28T19:04:08.414Z,8.52
2022-08-28T19:06:34.916Z,8.60
2022-08-28T19:09:01.407Z,7.53
2022-08-28T19:11:29.956Z,8.70
2022-08-28T19:13:56.378Z,8.02
2022-08-28T19:16:22.803Z,8.60
2022-08-28T19:18:51.403Z,8.15
2022-08-28T19:21:19.803Z,8.68
2022-08-28T19:23:53.854Z,11.48
2022-08-28T19:26:23.736Z,9.00
2022-08-28T19:28:50.557Z,7.95
2022-08-28T19:31:17.568Z,8.32
2022-08-28T19:33:46.547Z,8.82
2022-08-28T19:36:13.635Z,6.82
2022-08-28T19:38:40.552Z,8.38
2022-08-28T19:41:08.738Z,10.50
2022-08-28T19:43:42.994Z,7.13
2022-08-28T19:46:18.413Z,5.97
2022-08-28T19:48:48.704Z,8.82
2022-08-28T19:51:22.198Z,8.27
2022-08-28T19:53:56.788Z,8.85
2022-08-28T19:56:27.024Z,8.60
2022-08-28T19:58:54.692Z,6.65
2022-08-28T20:01:21.174Z,8.27
2022-08-28T20:03:47.647Z,7.85
2022-08-28T20:06:14.080Z,7.80
2022-08-28T20:08:40.560Z,6.57
2022-08-28T20:11:07.074Z,5.97
2022-08-28T20:13:33.540Z,9.35
2022-08-28T20:16:03.950Z,5.88
2022-08-28T20:18:30.456Z,5.13
2022-08-28T20:20:56.853Z,7.20
2022-08-28T20:23:23.260Z,5.97
2022-08-28T20:25:51.430Z,6.57
2022-08-28T20:28:19.081Z,6.32
2022-08-28T20:30:46.814Z,6.47
2022-08-28T20:33:13.759Z,5.40
2022-08-28T20:35:40.312Z,6.63
2022-08-28T20:38:07.027Z,5.97
2022-08-28T20:40:33.576Z,7.65
2022-08-28T20:43:00.699Z,5.28
2022-08-28T20:45:27.188Z,10.02
2022-08-28T20:47:53.634Z,7.00
2022-08-28T20:50:20.541Z,7.97
2022-08-28T20:52:46.949Z,6.60
2022-08-28T20:55:14.888Z,5.35
2022-08-28T20:57:41.596Z,9.80
2022-08-28T21:00:10.072Z,6.30
2022-08-28T21:02:36.785Z,7.80
2022-08-28T21:05:04.710Z,11.48
2022-08-28T21:07:33.360Z,8.27
2022-08-28T21:10:07.041Z,6.50
2022-08-28T21:12:35.610Z,7.47
2022-08-28T21:15:02.357Z,6.43
2022-08-28T21:17:30.287Z,6.63
2022-08-28T21:19:59.163Z,7.25
2022-08-28T21:22:25.658Z,6.97
2022-08-28T21:24:52.255Z,6.65
2022-08-28T21:27:18.838Z,7.03
2022-08-28T21:29:45.937Z,6.68
2022-08-28T21:32:12.887Z,10.10
2022-08-28T21:34:39.547Z,7.10
2022-08-28T21:37:06.392Z,8.82
2022-08-28T21:39:33.047Z,6.10
2022-08-28T21:41:59.565Z,5.50
2022-08-28T21:44:25.980Z,6.13
2022-08-28T21:46:52.603Z,7.97
2022-08-28T21:49:19.214Z,8.32
2022-08-28T21:51:45.787Z,6.50
2022-08-28T21:54:12.197Z,8.70
2022-08-28T21:56:38.765Z,9.30
2022-08-28T21:59:05.212Z,6.82
2022-08-28T22:01:31.866Z,9.00
2022-08-28T22:03:58.431Z,5.97
2022-08-28T22:06:26.363Z,8.07
2022-08-28T22:08:53.754Z,6.45
2022-08-28T22:11:21.137Z,8.00
2022-08-28T22:13:52.216Z,8.45
2022-08-28T22:16:18.675Z,7.78
2022-08-28T22:18:45.119Z,6.68
2022-08-28T22:21:32.940Z,8.10
2022-08-28T22:23:59.400Z,10.48
2022-08-28T22:26:26.096Z,7.13
2022-08-28T22:28:52.825Z,7.65
2022-08-28T22:31:19.577Z,6.75
2022-08-28T22:33:46.015Z,6.13
2022-08-28T22:36:13.049Z,6.63
2022-08-28T22:38:41.063Z,10.75
2022-08-28T22:41:15.370Z,9.13
2022-08-28T22:43:41.866Z,5.90
2022-08-28T22:46:09.356Z,8.50
2022-08-28T22:48:36.021Z,7.35
2022-08-28T22:51:06.557Z,5.90
2022-08-28T22:53:33.333Z,10.88
2022-08-28T22:56:00.714Z,6.63
2022-08-28T22:58:29.487Z,8.50
2022-08-28T23:00:57.887Z,7.30
2022-08-28T23:03:24.653Z,11.48
2022-08-28T23:05:51.450Z,8.60
2022-08-28T23:08:18.548Z,7.28
2022-08-28T23:10:58.435Z,8.90
2022-08-28T23:13:25.721Z,8.13
2022-08-28T23:15:52.209Z,9.95
2022-08-28T23:18:18.624Z,10.55
2022-08-28T23:20:45.075Z,8.75
2022-08-28T23:23:11.910Z,7.68
2022-08-28T23:25:38.525Z,8.30
2022-08-28T23:28:06.604Z,7.90
2022-08-28T23:30:33.459Z,6.68
2022-08-28T23:32:59.954Z,6.47
2022-08-28T23:35:26.507Z,8.00
2022-08-28T23:37:52.924Z,6.38
2022-08-28T23:40:22.225Z,9.02
2022-08-28T23:42:48.957Z,5.97
2022-08-28T23:45:17.199Z,8.40
2022-08-28T23:47:43.979Z,9.20
2022-08-28T23:50:16.890Z,7.25
2022-08-28T23:52:44.241Z,7.38
2022-08-28T23:55:11.857Z,7.88
2022-08-28T23:57:38.397Z,7.63
